Time;durP1;ratioP1;P1;durP2;ratioP2;P2;SDS_P1;SDS_P2;PMS_P1;PMS_P2;Temp;Humidity;BMP_temperature;BMP_pressure;BME280_temperature;BME280_humidity;BME280_pressure;Samples;Min_cycle;Max_cycle;Signal;HPM_P1;HPM_P2
2021/07/31 00:02:00;;;;;;;23.13;5.65;;;;;;;15.26;78.95;100432.31;5075633;28;20032;-64
2021/07/31 00:04:25;;;;;;;20.88;5.70;;;;;;;15.19;79.27;100430.69;5076493;28;20467;-65
2021/07/31 00:06:51;;;;;;;22.13;5.63;;;;;;;15.32;78.56;100415.31;5072461;28;20020;-66
2021/07/31 00:09:16;;;;;;;21.85;5.25;;;;;;;15.28;78.88;100430.47;5077112;28;20085;-62
2021/07/31 00:11:41;;;;;;;19.75;5.13;;;;;;;15.25;79.33;100432.34;5075939;28;20028;-65
2021/07/31 00:14:07;;;;;;;22.88;5.75;;;;;;;15.30;79.21;100434.00;5076970;28;20044;-61
2021/07/31 00:16:32;;;;;;;21.42;5.53;;;;;;;15.30;79.76;100434.00;5076886;28;20024;-62
2021/07/31 00:18:58;;;;;;;20.33;5.50;;;;;;;15.36;79.19;100426.75;5080628;28;20021;-62
2021/07/31 00:21:23;;;;;;;21.95;5.53;;;;;;;15.39;79.26;100426.69;5076723;28;20107;-62
2021/07/31 00:23:48;;;;;;;21.27;5.47;;;;;;;15.42;78.99;100426.63;5081450;28;20030;-62
2021/07/31 00:26:14;;;;;;;20.58;5.70;;;;;;;15.40;79.38;100434.66;5081604;28;20461;-61
2021/07/31 00:28:39;;;;;;;22.80;5.80;;;;;;;15.42;79.59;100418.63;5078633;28;20051;-62
2021/07/31 00:31:04;;;;;;;22.48;5.63;;;;;;;15.44;79.11;100424.81;5080827;28;20082;-61
2021/07/31 00:33:30;;;;;;;22.77;5.55;;;;;;;15.40;79.44;100423.13;5078406;28;20032;-62
2021/07/31 00:35:55;;;;;;;20.90;5.55;;;;;;;15.36;79.81;100430.28;5080989;28;20043;-62
2021/07/31 00:38:20;;;;;;;22.73;6.03;;;;;;;15.38;79.51;100409.84;5078852;28;20370;-62
2021/07/31 00:40:45;;;;;;;20.95;5.38;;;;;;;15.29;80.28;100418.03;5079157;28;20035;-63
2021/07/31 00:43:11;;;;;;;23.33;6.32;;;;;;;15.22;80.50;100419.06;5081088;28;20021;-62
2021/07/31 00:45:36;;;;;;;24.35;5.82;;;;;;;15.14;81.03;100409.47;5082011;28;20057;-65
2021/07/31 00:48:04;;;;;;;22.90;5.80;;;;;;;15.02;81.79;100412.38;5080532;28;20016;-62
2021/07/31 00:50:31;;;;;;;22.45;5.70;;;;;;;15.05;81.64;100422.97;5079802;28;20028;-62
2021/07/31 00:52:57;;;;;;;22.33;5.65;;;;;;;14.97;82.41;100423.13;5082677;28;20101;-62
2021/07/31 00:55:24;;;;;;;21.13;6.00;;;;;;;15.05;81.83;100438.06;5079273;28;20490;-62
2021/07/31 00:57:50;;;;;;;23.27;6.15;;;;;;;15.10;81.68;100433.50;5080048;28;20024;-64
2021/07/31 01:00:16;;;;;;;22.90;5.90;;;;;;;15.12;81.78;100429.06;5080539;28;20041;-62
2021/07/31 01:02:41;;;;;;;21.95;5.93;;;;;;;15.17;81.52;100424.50;5078978;28;20102;-66
2021/07/31 01:05:07;;;;;;;22.02;6.00;;;;;;;15.15;81.77;100435.16;5081229;28;20025;-66
2021/07/31 01:07:35;;;;;;;22.05;5.93;;;;;;;15.13;81.44;100434.34;5077078;28;20028;-65
2021/07/31 01:10:01;;;;;;;20.75;5.80;;;;;;;15.10;81.73;100426.44;5077996;28;20454;-64
2021/07/31 01:12:26;;;;;;;22.23;6.07;;;;;;;15.05;82.22;100424.75;5079519;28;20020;-65
2021/07/31 01:14:51;;;;;;;21.77;6.28;;;;;;;14.98;82.71;100422.22;5082926;28;20032;-64
2021/07/31 01:17:17;;;;;;;23.35;6.10;;;;;;;14.98;82.03;100427.56;5079930;28;20031;-63
2021/07/31 01:19:42;;;;;;;24.27;6.32;;;;;;;15.02;81.68;100427.50;5081784;28;20475;-65
2021/07/31 01:22:08;;;;;;;21.90;6.25;;;;;;;15.03;82.26;100429.22;5079201;28;20107;-65
2021/07/31 01:24:33;;;;;;;23.20;5.88;;;;;;;15.03;81.84;100413.25;5079071;28;20020;-66
2021/07/31 01:26:59;;;;;;;23.02;6.35;;;;;;;15.02;81.39;100422.16;5079804;28;20029;-65
2021/07/31 01:29:25;;;;;;;23.33;6.05;;;;;;;14.92;82.35;100401.03;5079728;28;20483;-64
2021/07/31 01:31:50;;;;;;;22.80;6.03;;;;;;;14.91;82.37;100409.06;5076788;28;20109;-61
2021/07/31 01:34:16;;;;;;;22.42;5.80;;;;;;;14.81;82.69;100403.06;5079156;28;20401;-66
2021/07/31 01:36:41;;;;;;;23.52;6.13;;;;;;;14.82;82.54;100407.47;5079671;28;20040;-65
2021/07/31 01:39:07;;;;;;;24.38;6.55;;;;;;;14.78;83.02;100416.41;5075944;28;20052;-65
2021/07/31 01:41:32;;;;;;;21.55;5.90;;;;;;;14.78;82.82;100405.75;5077587;28;20028;-64
2021/07/31 01:43:58;;;;;;;24.75;6.32;;;;;;;14.84;82.20;100396.78;5079333;28;20028;-65
2021/07/31 01:46:24;;;;;;;24.23;6.25;;;;;;;14.78;82.94;100405.75;5077380;28;20056;-65
2021/07/31 01:48:49;;;;;;;24.17;6.30;;;;;;;14.75;83.37;100403.16;5079529;28;20033;-64
2021/07/31 01:51:15;;;;;;;21.40;6.18;;;;;;;14.79;83.42;100415.50;5078100;28;20119;-64
2021/07/31 01:53:41;;;;;;;21.85;6.20;;;;;;;14.86;83.17;100411.81;5079718;28;20075;-64
2021/07/31 01:56:07;;;;;;;22.92;6.32;;;;;;;14.92;83.25;100408.16;5074682;28;20066;-65
2021/07/31 01:58:32;;;;;;;24.13;6.25;;;;;;;14.95;82.90;100418.75;5073457;28;20047;-64
2021/07/31 02:00:58;;;;;;;23.95;6.18;;;;;;;15.01;82.80;100412.41;5075222;28;20048;-65
2021/07/31 02:03:25;;;;;;;23.60;6.57;;;;;;;15.04;83.15;100420.34;5081047;28;20040;-64
2021/07/31 02:05:50;;;;;;;23.77;6.20;;;;;;;15.04;82.47;100417.69;5079749;28;20016;-65
2021/07/31 02:08:16;;;;;;;23.40;6.53;;;;;;;14.97;83.08;100423.13;5078472;28;20383;-64
2021/07/31 02:10:41;;;;;;;22.90;6.35;;;;;;;14.91;83.42;100403.75;5077830;28;20025;-65
2021/07/31 02:13:06;;;;;;;23.88;6.25;;;;;;;14.82;84.36;100427.00;5075925;28;20024;-65
2021/07/31 02:15:32;;;;;;;23.88;6.63;;;;;;;14.97;83.06;100419.59;5077731;28;20016;-66
2021/07/31 02:17:58;;;;;;;21.77;6.30;;;;;;;14.94;83.86;100409.91;5078668;28;20390;-62
2021/07/31 02:20:24;;;;;;;24.30;6.38;;;;;;;14.97;83.56;100411.63;5077427;28;20036;-65
2021/07/31 02:22:50;;;;;;;21.83;6.28;;;;;;;14.94;83.79;100412.56;5078778;28;20136;-62
2021/07/31 02:25:15;;;;;;;25.92;6.53;;;;;;;14.96;83.83;100402.75;5079266;28;20170;-61
2021/07/31 02:27:41;;;;;;;23.60;6.35;;;;;;;14.98;83.62;100406.25;5077275;28;20451;-61
2021/07/31 02:30:07;;;;;;;22.95;6.45;;;;;;;15.02;83.39;100411.53;5077013;28;20033;-60
2021/07/31 02:32:32;;;;;;;23.50;6.20;;;;;;;15.01;83.63;100412.41;5078637;28;20027;-61
2021/07/31 02:34:57;;;;;;;24.23;6.38;;;;;;;14.96;84.17;100396.56;5078495;28;20024;-60
2021/07/31 02:37:23;;;;;;;23.23;6.35;;;;;;;14.91;84.39;100409.97;5080507;28;20043;-60
2021/07/31 02:39:48;;;;;;;23.35;6.55;;;;;;;14.90;84.66;100402.88;5077093;28;20028;-61
2021/07/31 02:42:15;;;;;;;21.98;6.32;;;;;;;14.89;84.65;100408.22;5076919;28;20021;-61
2021/07/31 02:44:40;;;;;;;23.88;6.68;;;;;;;14.90;84.88;100404.66;5077434;28;20356;-61
2021/07/31 02:47:06;;;;;;;23.33;6.47;;;;;;;14.93;84.10;100401.94;5076973;28;20097;-61
2021/07/31 02:49:32;;;;;;;22.15;6.95;;;;;;;15.00;83.30;100408.91;5077197;28;20025;-62
2021/07/31 02:51:57;;;;;;;22.13;6.22;;;;;;;14.98;83.31;100408.94;5076913;28;20089;-60
2021/07/31 02:54:22;;;;;;;22.02;6.30;;;;;;;15.07;82.66;100406.97;5077139;28;20027;-61
2021/07/31 02:56:47;;;;;;;24.05;6.60;;;;;;;15.11;82.51;100416.63;5076364;28;20150;-61
2021/07/31 02:59:13;;;;;;;22.05;6.35;;;;;;;15.13;82.04;100409.47;5079114;28;20481;-61
2021/07/31 03:01:38;;;;;;;21.73;6.80;;;;;;;15.07;82.73;100413.19;5075496;28;20033;-61
2021/07/31 03:04:04;;;;;;;22.45;6.35;;;;;;;15.07;82.85;100420.28;5075740;28;20031;-61
2021/07/31 03:06:29;;;;;;;23.00;6.80;;;;;;;15.06;82.51;100402.56;5077655;28;20021;-61
2021/07/31 03:08:55;;;;;;;22.75;6.65;;;;;;;14.98;83.08;100395.63;5076125;28;20017;-61
2021/07/31 03:11:22;;;;;;;25.10;6.78;;;;;;;15.06;82.53;100391.91;5076681;28;20119;-64
2021/07/31 03:13:47;;;;;;;23.25;6.50;;;;;;;15.02;82.98;100406.19;5075979;28;20029;-61
2021/07/31 03:16:12;;;;;;;24.58;6.82;;;;;;;15.05;82.56;100395.47;5072934;28;20064;-61
2021/07/31 03:18:37;;;;;;;22.88;6.55;;;;;;;15.04;83.05;100409.69;5075485;28;20054;-65
2021/07/31 03:21:03;;;;;;;25.00;6.75;;;;;;;15.06;82.49;100399.91;5074383;28;20020;-62
2021/07/31 03:23:28;;;;;;;23.38;6.90;;;;;;;15.03;82.67;100398.19;5074507;28;20463;-65
2021/07/31 03:25:58;;;;;;;21.92;6.50;;;;;;;14.98;84.00;100406.25;5076294;28;20036;-64
2021/07/31 03:28:24;;;;;;;22.95;7.32;;;;;;;14.83;86.74;100401.25;5075252;28;20123;-62
2021/07/31 03:30:49;;;;;;;22.77;7.45;;;;;;;14.58;88.32;100407.00;5072934;28;20525;-61
2021/07/31 03:33:14;;;;;;;23.70;7.60;;;;;;;14.54;89.14;100399.13;5076561;28;20052;-61
2021/07/31 03:35:42;;;;;;;22.75;7.30;;;;;;;14.52;89.38;100401.81;5077552;28;20069;-62
2021/07/31 03:38:09;;;;;;;23.02;7.28;;;;;;;14.61;87.47;100396.34;5076858;28;20128;-63
2021/07/31 03:40:35;;;;;;;22.52;6.88;;;;;;;14.60;88.27;100410.50;5077287;28;20063;-61
2021/07/31 03:43:01;;;;;;;21.90;7.13;;;;;;;14.57;88.65;100412.38;5076929;28;20024;-60
2021/07/31 03:45:26;;;;;;;24.42;7.65;;;;;;;14.44;90.85;100414.38;5075954;28;20110;-61
2021/07/31 03:47:52;;;;;;;24.92;8.20;;;;;;;14.24;94.08;100420.94;5075892;28;20052;-64
2021/07/31 03:50:18;;;;;;;24.63;8.15;;;;;;;14.15;95.31;100429.06;5077213;28;20459;-65
2021/07/31 03:52:43;;;;;;;25.30;8.30;;;;;;;14.00;98.67;100431.97;5080076;28;20493;-63
2021/07/31 03:55:09;;;;;;;24.75;8.65;;;;;;;13.95;100.00;100445.34;5081183;28;20474;-64
2021/07/31 03:57:34;;;;;;;25.27;9.30;;;;;;;13.85;100.00;100441.94;5082283;28;21214;-64
2021/07/31 04:00:01;;;;;;;28.27;10.13;;;;;;;13.76;100.00;100445.63;5080623;28;20055;-65
2021/07/31 04:02:26;;;;;;;25.17;10.10;;;;;;;13.66;100.00;100446.66;5082086;28;20024;-63
2021/07/31 04:04:52;;;;;;;25.88;10.98;;;;;;;13.54;100.00;100438.84;5081738;28;20028;-64
2021/07/31 04:07:17;;;;;;;26.88;11.00;;;;;;;13.50;100.00;100448.66;5081526;28;20056;-61
2021/07/31 04:09:43;;;;;;;26.23;10.60;;;;;;;13.47;100.00;100447.81;5083258;28;20025;-62
2021/07/31 04:12:08;;;;;;;26.88;11.20;;;;;;;13.48;100.00;100453.09;5080553;28;20069;-63
2021/07/31 04:14:34;;;;;;;28.85;11.27;;;;;;;13.46;100.00;100443.41;5080729;28;20031;-61
2021/07/31 04:17:00;;;;;;;25.67;11.50;;;;;;;13.38;100.00;100451.47;5082630;28;20025;-62
2021/07/31 04:19:26;;;;;;;25.85;11.85;;;;;;;13.41;100.00;100454.97;5082182;28;20032;-62
2021/07/31 04:21:54;;;;;;;29.20;11.95;;;;;;;13.41;100.00;100440.81;5078539;28;20534;-62
2021/07/31 04:24:20;;;;;;;25.90;11.65;;;;;;;13.37;100.00;100444.44;5081747;28;20467;-62
2021/07/31 04:26:46;;;;;;;26.25;11.90;;;;;;;13.39;100.00;100458.53;5078260;28;20034;-61
2021/07/31 04:29:11;;;;;;;27.33;11.73;;;;;;;13.45;100.00;100453.13;5079326;28;20020;-61
2021/07/31 04:31:36;;;;;;;28.50;12.00;;;;;;;13.50;100.00;100469.91;5078407;28;20120;-61
2021/07/31 04:34:02;;;;;;;26.15;11.57;;;;;;;13.56;100.00;100461.84;5081462;28;20028;-61
2021/07/31 04:36:27;;;;;;;25.02;11.73;;;;;;;13.66;100.00;100461.69;5079003;28;20024;-62
2021/07/31 04:38:53;;;;;;;29.02;13.57;;;;;;;13.65;100.00;100467.94;5077972;28;20024;-61
2021/07/31 04:41:18;;;;;;;26.30;12.95;;;;;;;13.50;100.00;100461.94;5082707;28;20116;-61
2021/07/31 04:43:43;;;;;;;27.92;14.52;;;;;;;13.36;100.00;100461.25;5077529;28;20028;-61
2021/07/31 04:46:09;;;;;;;30.17;15.05;;;;;;;13.32;100.00;100462.16;5077145;28;20024;-61
2021/07/31 04:48:34;;;;;;;31.50;15.90;;;;;;;13.29;100.00;100472.81;5078667;28;20025;-62
2021/07/31 04:51:02;;;;;;;29.77;15.38;;;;;;;13.23;100.00;100463.13;5079626;28;20056;-61
2021/07/31 04:53:28;;;;;;;30.08;16.05;;;;;;;13.24;100.00;100476.38;5077328;28;20463;-62
2021/07/31 04:55:57;;;;;;;30.45;15.75;;;;;;;13.20;100.00;100473.78;5078573;28;20036;-61
2021/07/31 04:58:23;;;;;;;32.78;16.23;;;;;;;13.23;100.00;100474.63;5078440;28;20071;-61
2021/07/31 05:00:49;;;;;;;30.75;15.60;;;;;;;13.25;100.00;100479.91;5077934;28;20087;-61
2021/07/31 05:03:15;;;;;;;30.02;15.38;;;;;;;13.27;100.00;100477.25;5077077;28;20063;-62
2021/07/31 05:05:45;;;;;;;29.83;16.23;;;;;;;13.29;100.00;100489.59;5078582;28;20062;-62
2021/07/31 05:08:12;;;;;;;30.60;15.95;;;;;;;13.31;100.00;100486.91;5079507;28;20106;-61
2021/07/31 05:10:42;;;;;;;32.35;16.13;;;;;;;13.31;100.00;100481.63;5079754;28;20024;-62
2021/07/31 05:13:08;;;;;;;29.70;14.93;;;;;;;13.33;100.00;100483.34;5075978;28;20024;-61
2021/07/31 05:15:37;;;;;;;31.45;15.90;;;;;;;13.34;100.00;100492.19;5079369;28;20032;-61
2021/07/31 05:18:04;;;;;;;30.15;15.10;;;;;;;13.33;100.00;100495.75;5077514;28;20028;-61
2021/07/31 05:20:30;;;;;;;31.10;15.27;;;;;;;13.34;100.00;100495.78;5080377;28;20058;-62
2021/07/31 05:22:55;;;;;;;29.58;15.23;;;;;;;13.35;100.00;100494.88;5076459;28;20031;-61
2021/07/31 05:25:21;;;;;;;32.35;15.82;;;;;;;13.38;100.00;100499.25;5078522;28;20119;-61
2021/07/31 05:27:46;;;;;;;32.22;16.15;;;;;;;13.39;100.00;100504.53;5077677;28;20021;-61
2021/07/31 05:30:12;;;;;;;30.55;15.20;;;;;;;13.39;100.00;100512.50;5076869;28;20629;-62
2021/07/31 05:32:37;;;;;;;28.92;15.27;;;;;;;13.45;100.00;100514.22;5079356;28;20402;-63
2021/07/31 05:35:03;;;;;;;30.02;14.45;;;;;;;13.46;100.00;100521.28;5079115;28;20027;-62
2021/07/31 05:37:31;;;;;;;30.90;15.57;;;;;;;13.46;100.00;100512.44;5077409;28;20039;-61
2021/07/31 05:39:57;;;;;;;31.20;15.80;;;;;;;13.46;100.00;100520.41;5081356;28;20082;-63
2021/07/31 05:42:22;;;;;;;29.67;14.65;;;;;;;13.52;100.00;100507.91;5076970;28;20024;-64
2021/07/31 05:44:47;;;;;;;31.25;14.75;;;;;;;13.51;100.00;100513.25;5076701;28;20031;-64
2021/07/31 05:47:12;;;;;;;29.52;14.27;;;;;;;13.56;100.00;100503.47;5081011;28;20043;-63
2021/07/31 05:49:38;;;;;;;29.10;13.93;;;;;;;13.64;100.00;100506.88;5078389;28;20029;-64
2021/07/31 05:52:04;;;;;;;31.20;14.00;;;;;;;13.70;100.00;100521.84;5079476;28;20051;-64
2021/07/31 05:54:31;;;;;;;30.35;14.20;;;;;;;13.69;100.00;100530.72;5076718;28;20064;-62
2021/07/31 05:56:56;;;;;;;31.25;13.98;;;;;;;13.69;100.00;100526.31;5078504;28;20505;-65
2021/07/31 05:59:21;;;;;;;29.85;14.48;;;;;;;13.78;100.00;100526.16;5039629;28;1111764;-63
2021/07/31 06:01:46;;;;;;;28.65;13.70;;;;;;;13.87;100.00;100522.50;5080725;28;20036;-64
2021/07/31 06:04:12;;;;;;;26.40;13.40;;;;;;;13.97;100.00;100527.69;5078605;28;20059;-64
2021/07/31 06:06:37;;;;;;;28.73;14.15;;;;;;;13.98;100.00;100518.81;5080282;28;20055;-65
2021/07/31 06:09:02;;;;;;;28.40;14.60;;;;;;;13.93;100.00;100526.84;5081731;28;20044;-61
2021/07/31 06:11:28;;;;;;;27.52;13.60;;;;;;;13.87;100.00;100534.91;5079710;28;20032;-65
2021/07/31 06:13:53;;;;;;;31.15;14.23;;;;;;;13.85;100.00;100534.94;5078466;28;20419;-64
2021/07/31 06:16:18;;;;;;;29.17;15.05;;;;;;;13.95;100.00;100541.00;5080751;28;20119;-63
2021/07/31 06:18:44;;;;;;;28.63;14.88;;;;;;;13.96;100.00;100532.09;5077265;28;20025;-62
2021/07/31 06:21:17;;;;;;;33.33;14.90;;;;;;;14.01;100.00;100537.34;5076686;28;20028;-64
2021/07/31 06:23:43;;;;;;;28.02;14.30;;;;;;;13.95;100.00;100533.91;5077599;28;20020;-64
2021/07/31 06:26:09;;;;;;;28.73;14.50;;;;;;;13.91;100.00;100540.16;5075915;28;20097;-63
2021/07/31 06:28:34;;;;;;;28.13;15.18;;;;;;;13.97;100.00;100554.28;5072486;28;20479;-64
2021/07/31 06:30:59;;;;;;;27.58;14.90;;;;;;;14.02;100.00;100539.13;5077412;28;20035;-64
2021/07/31 06:33:25;;;;;;;28.55;14.82;;;;;;;14.06;100.00;100551.47;5079579;28;20028;-65
2021/07/31 06:35:50;;;;;;;30.35;15.02;;;;;;;14.12;100.00;100552.28;5074945;28;20039;-62
2021/07/31 06:38:15;;;;;;;27.80;13.85;;;;;;;14.20;100.00;100545.94;5076193;28;20059;-63
2021/07/31 06:40:42;;;;;;;28.52;14.70;;;;;;;14.30;100.00;100551.09;5076893;28;20111;-62
2021/07/31 06:43:08;;;;;;;27.98;13.40;;;;;;;14.39;100.00;100549.19;5073831;28;20452;-61
2021/07/31 06:45:33;;;;;;;27.38;14.07;;;;;;;14.49;100.00;100540.19;5075131;28;20149;-61
2021/07/31 06:47:58;;;;;;;28.30;13.80;;;;;;;14.56;99.12;100557.78;5074714;28;20032;-62
2021/07/31 06:50:23;;;;;;;27.45;14.05;;;;;;;14.70;99.21;100570.00;5075118;28;20020;-63
2021/07/31 06:52:49;;;;;;;26.40;13.20;;;;;;;14.90;96.13;100556.34;5074739;28;20024;-63
2021/07/31 06:55:14;;;;;;;25.58;12.43;;;;;;;14.94;95.51;100558.94;5073344;28;20467;-61
2021/07/31 06:57:39;;;;;;;25.27;13.50;;;;;;;14.76;99.89;100548.59;5077378;28;20095;-63
2021/07/31 07:00:05;;;;;;;27.05;13.23;;;;;;;14.74;98.95;100567.25;5073836;28;20570;-62
2021/07/31 07:02:31;;;;;;;24.95;12.63;;;;;;;15.02;97.03;100565.91;5074631;28;20028;-62
2021/07/31 07:04:56;;;;;;;27.05;12.25;;;;;;;15.36;92.76;100567.91;5073840;28;20016;-62
2021/07/31 07:07:21;;;;;;;26.60;11.55;;;;;;;15.56;91.25;100563.03;5075219;28;20463;-62
2021/07/31 07:09:47;;;;;;;23.65;11.40;;;;;;;15.88;89.94;100563.31;5076378;28;20042;-60
2021/07/31 07:12:12;;;;;;;24.52;10.60;;;;;;;15.97;87.07;100568.44;5075498;28;20112;-63
2021/07/31 07:14:38;;;;;;;23.73;11.45;;;;;;;16.01;85.69;100571.00;5078020;28;20060;-64
2021/07/31 07:17:05;;;;;;;22.17;9.98;;;;;;;16.01;84.30;100583.44;5076209;28;20035;-65
2021/07/31 07:19:30;;;;;;;21.65;9.73;;;;;;;15.85;86.28;100581.09;5074669;28;20351;-65
2021/07/31 07:21:55;;;;;;;24.60;11.02;;;;;;;15.54;88.99;100579.97;5075667;28;20028;-64
2021/07/31 07:24:21;;;;;;;24.45;10.77;;;;;;;15.43;89.24;100589.03;5076292;28;20344;-63
2021/07/31 07:26:46;;;;;;;24.67;10.63;;;;;;;15.60;87.70;100578.06;5076025;28;20106;-65
2021/07/31 07:29:11;;;;;;;23.83;10.98;;;;;;;15.75;86.30;100589.31;5075663;28;20465;-64
2021/07/31 07:31:37;;;;;;;24.63;11.07;;;;;;;15.88;85.48;100584.63;5076008;28;20024;-63
2021/07/31 07:34:02;;;;;;;22.15;10.38;;;;;;;16.11;85.26;100597.47;5076948;28;20032;-65
2021/07/31 07:36:27;;;;;;;24.10;10.30;;;;;;;16.11;82.22;100585.00;5075296;28;20052;-66
2021/07/31 07:38:53;;;;;;;23.25;10.75;;;;;;;16.10;81.67;100598.38;5077903;28;20072;-63
2021/07/31 07:41:18;;;;;;;22.30;11.05;;;;;;;16.07;82.01;100595.78;5078215;28;20055;-62
2021/07/31 07:43:44;;;;;;;21.92;10.43;;;;;;;16.07;81.77;100609.09;5076886;28;20070;-63
2021/07/31 07:46:14;;;;;;;22.42;10.30;;;;;;;16.17;81.19;100610.66;5077698;28;20020;-64
2021/07/31 07:48:41;;;;;;;22.40;10.95;;;;;;;16.33;81.76;100609.38;5071655;28;20025;-64
2021/07/31 07:51:06;;;;;;;24.13;11.48;;;;;;;16.41;80.76;100606.56;5076399;28;20025;-63
2021/07/31 07:53:31;;;;;;;24.02;11.30;;;;;;;16.55;79.86;100614.22;5072998;28;20032;-63
2021/07/31 07:55:57;;;;;;;22.65;10.68;;;;;;;16.57;78.33;100604.34;5073915;28;20028;-63
2021/07/31 07:58:22;;;;;;;22.23;10.40;;;;;;;16.74;78.05;100603.97;5075214;28;20111;-62
2021/07/31 08:00:47;;;;;;;21.25;10.45;;;;;;;16.93;78.18;100604.41;5078619;28;20205;-62
2021/07/31 08:03:14;;;;;;;23.08;9.88;;;;;;;17.02;75.56;100617.53;5075036;28;20043;-62
2021/07/31 08:05:40;;;;;;;23.55;10.30;;;;;;;16.94;75.27;100615.97;5077431;28;20032;-63
2021/07/31 08:08:08;;;;;;;22.88;9.80;;;;;;;16.83;75.12;100618.88;5076428;28;20024;-62
2021/07/31 08:10:35;;;;;;;21.92;9.38;;;;;;;16.80;74.40;100621.63;5077001;28;20016;-62
2021/07/31 08:13:01;;;;;;;21.67;9.00;;;;;;;16.82;75.66;100622.44;5076901;28;20467;-62
2021/07/31 08:15:26;;;;;;;20.80;8.57;;;;;;;16.95;73.31;100625.72;5076069;28;20040;-62
2021/07/31 08:17:52;;;;;;;23.23;9.30;;;;;;;16.98;74.15;100615.84;5075017;28;20046;-62
2021/07/31 08:20:17;;;;;;;21.85;9.27;;;;;;;17.19;72.70;100616.19;5076294;28;20059;-62
2021/07/31 08:22:42;;;;;;;21.63;8.60;;;;;;;17.29;71.60;100615.03;5076583;28;20459;-62
2021/07/31 08:25:09;;;;;;;21.30;8.32;;;;;;;17.33;71.48;100613.13;5079094;28;20027;-68
2021/07/31 08:27:35;;;;;;;21.20;8.27;;;;;;;17.49;71.99;100610.91;5076901;28;20036;-66
2021/07/31 08:30:00;;;;;;;20.17;7.57;;;;;;;17.85;71.39;100624.16;5069936;28;20037;-62
2021/07/31 08:32:26;;;;;;;20.88;7.72;;;;;;;18.10;69.42;100613.63;5067166;28;20451;-63
2021/07/31 08:34:51;;;;;;;19.88;7.35;;;;;;;17.96;67.96;100624.75;5067903;28;20020;-64
2021/07/31 08:37:17;;;;;;;20.50;7.75;;;;;;;17.98;68.72;100622.03;5070138;28;20043;-63
2021/07/31 08:39:43;;;;;;;20.48;8.20;;;;;;;18.07;66.05;100619.97;5071273;28;20080;-65
2021/07/31 08:42:12;;;;;;;20.33;8.40;;;;;;;17.96;68.08;100621.22;5071055;28;20021;-62
2021/07/31 08:44:38;;;;;;;21.52;8.93;;;;;;;17.86;67.99;100618.75;5066603;28;20042;-62
2021/07/31 08:47:05;;;;;;;20.25;7.90;;;;;;;17.61;69.01;100623.94;5072158;28;20509;-63
2021/07/31 08:49:35;;;;;;;20.60;8.10;;;;;;;17.40;69.83;100630.75;5078192;28;20024;-61
2021/07/31 08:52:03;;;;;;;19.73;7.97;;;;;;;17.25;70.32;100619.56;5075873;28;20017;-61
2021/07/31 08:54:28;;;;;;;20.02;8.52;;;;;;;17.12;70.24;100627.97;5081204;28;20352;-62
2021/07/31 08:56:54;;;;;;;20.98;8.15;;;;;;;16.99;70.21;100624.72;5080612;28;20040;-63
2021/07/31 08:59:27;;;;;;;20.23;8.25;;;;;;;17.08;70.04;100629.81;5083702;28;20020;-62
2021/07/31 09:01:52;;;;;;;;;;;;;;;17.00;70.31;100627.34;5080698;28;20028;-62
2021/07/31 09:04:18;;;;;;;22.45;8.77;;;;;;;16.91;70.69;100638.28;5078437;28;20009;-63
2021/07/31 09:06:45;;;;;;;21.58;9.48;;;;;;;16.91;70.89;100638.28;5076021;28;20074;-62
2021/07/31 09:09:11;;;;;;;22.35;9.80;;;;;;;16.87;71.87;100631.22;5077520;28;20432;-62
2021/07/31 09:11:57;;;;;;;23.77;11.00;;;;;;;16.89;71.18;100638.31;5078659;28;20324;-61
2021/07/31 09:14:23;;;;;;;21.55;10.63;;;;;;;17.10;71.91;100648.50;5078408;28;20024;-61
2021/07/31 09:16:48;;;;;;;21.60;10.95;;;;;;;17.30;70.16;100646.19;5081210;28;20474;-62
2021/07/31 09:19:15;;;;;;;23.00;10.35;;;;;;;17.49;68.64;100651.00;5077535;28;20024;-62
2021/07/31 09:21:42;;;;;;;22.20;10.63;;;;;;;17.46;68.92;100661.78;5080481;28;20025;-62
2021/07/31 09:24:15;;;;;;;23.80;10.00;;;;;;;17.58;68.50;100661.47;5076825;28;20078;-62
2021/07/31 09:26:48;;;;;;;20.67;9.75;;;;;;;17.67;67.52;100677.22;5080279;28;20107;-62
2021/07/31 09:29:19;;;;;;;23.58;11.40;;;;;;;17.61;69.38;100666.72;5076546;28;20482;-62
2021/07/31 09:31:44;;;;;;;22.02;10.57;;;;;;;17.62;67.37;100676.50;5078421;28;20091;-61
2021/07/31 09:34:09;;;;;;;22.05;11.20;;;;;;;17.53;67.70;100660.69;5080495;28;20056;-61
2021/07/31 09:36:40;;;;;;;23.55;11.25;;;;;;;17.58;68.69;100675.69;5079557;28;20032;-62
2021/07/31 09:39:07;;;;;;;22.55;11.30;;;;;;;17.42;68.92;100677.88;5078092;28;20107;-61
2021/07/31 09:41:39;;;;;;;22.38;11.50;;;;;;;17.21;69.11;100670.44;5081583;28;20493;-62
2021/07/31 09:44:17;;;;;;;23.35;11.55;;;;;;;17.19;70.41;100670.47;5078271;28;20067;-62
2021/07/31 09:46:48;;;;;;;23.67;12.35;;;;;;;17.12;70.71;100668.88;5078836;28;20024;-62
2021/07/31 09:49:19;;;;;;;23.77;13.35;;;;;;;17.08;72.47;100673.44;5078092;28;20024;-62
2021/07/31 09:51:46;;;;;;;24.38;14.07;;;;;;;17.08;72.04;100693.91;5078842;28;20033;-62
2021/07/31 09:54:14;;;;;;;25.90;15.55;;;;;;;17.25;74.35;100680.13;5078967;28;20025;-61
2021/07/31 09:56:40;;;;;;;23.48;15.25;;;;;;;17.35;74.10;100687.00;5078528;28;20479;-62
2021/07/31 09:59:07;;;;;;;26.13;15.63;;;;;;;17.16;75.06;100688.41;5078703;28;20031;-62
2021/07/31 10:01:37;;;;;;;25.90;15.90;;;;;;;16.96;76.02;100697.75;5078214;28;20052;-61
2021/07/31 10:04:04;;;;;;;25.05;15.35;;;;;;;16.84;74.73;100703.38;5078823;28;20028;-62
2021/07/31 10:06:31;;;;;;;23.80;13.88;;;;;;;16.70;76.24;100715.25;5078715;28;20063;-62
2021/07/31 10:08:58;;;;;;;24.98;14.43;;;;;;;16.76;76.63;100713.34;5077420;28;20028;-63
2021/07/31 10:11:23;;;;;;;25.42;14.25;;;;;;;16.52;79.75;100700.53;5076512;28;20391;-62
2021/07/31 10:13:49;;;;;;;25.80;14.25;;;;;;;16.55;79.95;100696.91;5074902;28;20028;-62
2021/07/31 10:16:16;;;;;;;25.52;15.45;;;;;;;16.62;78.47;100709.22;5076101;28;20028;-61
2021/07/31 10:18:54;;;;;;;24.58;14.48;;;;;;;16.75;78.90;100709.81;5076653;28;20538;-62
2021/07/31 10:21:19;;;;;;;24.85;14.68;;;;;;;16.80;77.87;100715.03;5074287;28;20028;-61
2021/07/31 10:23:58;;;;;;;24.80;15.65;;;;;;;16.73;80.58;100733.88;5079081;28;20024;-62
2021/07/31 10:26:24;;;;;;;26.42;17.65;;;;;;;15.91;95.37;100740.03;5076565;28;20120;-62
2021/07/31 10:28:50;;;;;;;29.73;19.50;;;;;;;15.49;100.00;100745.22;5077309;28;20162;-62
2021/07/31 10:31:41;;;;;;;31.17;20.42;;;;;;;15.16;100.00;100739.56;5077262;28;20577;-62
2021/07/31 10:34:06;;;;;;;30.10;19.48;;;;;;;15.30;100.00;100732.22;5070523;28;20040;-61
2021/07/31 10:36:36;;;;;;;25.65;16.20;;;;;;;15.25;100.00;100744.72;5077661;28;20048;-62
2021/07/31 10:39:26;;;;;;;26.00;16.73;;;;;;;15.24;100.00;100748.28;5076372;28;20024;-62
2021/07/31 10:41:56;;;;;;;29.00;18.48;;;;;;;15.33;100.00;100739.25;5077098;28;20912;-63
2021/07/31 10:44:23;;;;;;;28.85;18.35;;;;;;;15.48;100.00;100738.16;5074745;28;20028;-62
2021/07/31 10:46:49;;;;;;;30.08;19.00;;;;;;;15.90;100.00;100740.06;5077917;28;20030;-62
2021/07/31 10:49:36;;;;;;;26.25;16.25;;;;;;;16.26;100.00;100749.09;5074981;28;20028;-62
2021/07/31 10:52:01;;;;;;;27.15;17.65;;;;;;;16.81;93.67;100749.69;5077763;28;20074;-63
2021/07/31 10:54:59;;;;;;;27.05;16.77;;;;;;;18.04;88.45;100750.22;5079314;28;20037;-62
2021/07/31 10:57:54;;;;;;;25.45;15.57;;;;;;;18.25;83.86;100740.72;5079980;28;20067;-62
2021/07/31 11:00:22;;;;;;;24.00;13.10;;;;;;;18.44;79.08;100739.22;5023490;28;20056;-62
2021/07/31 11:02:48;;;;;;;23.60;12.38;;;;;;;18.10;75.06;100748.25;5018501;28;20045;-62
2021/07/31 11:05:13;;;;;;;24.55;13.93;;;;;;;18.20;78.31;100753.31;5023342;28;20228;-62
2021/07/31 11:07:56;;;;;;;23.60;13.77;;;;;;;18.56;75.86;100754.03;5014456;28;20088;-62
2021/07/31 11:10:44;;;;;;;23.80;13.82;;;;;;;19.31;71.47;100733.88;5021023;28;20025;-63